Time,TemperatureF,DewpointF,PressureIn,WindDirection,WindDirectionDegrees,WindSpeedMPH,WindSpeedGustMPH,Humidity,HourlyPrecipIn,Conditions,Clouds,dailyrainin,SolarRadiationWatts/m^2,SoftwareType,DateUTC
2013-07-05 00:11:00,75.4,72.0,30.26,South,170,0.0,6.0,88,0.00,,,0.00,0,weatherlink.com 1.10,2013-07-05 04:11:00,
2013-07-05 00:26:00,75.2,72.0,30.26,SSE,159,0.0,3.0,89,0.00,,,0.00,0,weatherlink.com 1.10,2013-07-05 04:26:00,
2013-07-05 00:41:00,74.9,72.0,30.26,South,169,0.0,3.0,90,0.00,,,0.00,0,weatherlink.com 1.10,2013-07-05 04:41:00,
2013-07-05 00:56:00,74.4,72.0,30.26,South,169,0.0,0.0,91,0.00,,,0.00,0,weatherlink.com 1.10,2013-07-05 04:56:00,
2013-07-05 01:11:00,73.9,72.0,30.26,South,169,0.0,0.0,92,0.00,,,0.00,0,weatherlink.com 1.10,2013-07-05 05:11:00,
2013-07-05 01:26:00,73.6,72.0,30.26,South,169,0.0,0.0,93,0.00,,,0.00,0,weatherlink.com 1.10,2013-07-05 05:26:00,
2013-07-05 01:41:00,73.4,71.0,30.26,East,79,0.0,0.0,93,0.00,,,0.00,0,weatherlink.com 1.10,2013-07-05 05:41:00,
2013-07-05 01:56:00,73.3,72.0,30.25,South,174,0.0,3.0,94,0.00,,,0.00,0,weatherlink.com 1.10,2013-07-05 05:56:00,
2013-07-05 02:11:00,73.2,71.0,30.25,SE,125,0.0,3.0,94,0.00,,,0.00,0,weatherlink.com 1.10,2013-07-05 06:11:00,
2013-07-05 02:26:00,73.3,72.0,30.25,East,88,0.0,3.0,94,0.00,,,0.00,0,weatherlink.com 1.10,2013-07-05 06:26:00,
2013-07-05 02:41:00,73.2,71.0,30.24,South,171,0.0,3.0,94,0.00,,,0.00,0,weatherlink.com 1.10,2013-07-05 06:41:00,
2013-07-05 02:56:00,73.1,71.0,30.24,ESE,112,0.0,1.0,94,0.00,,,0.00,0,weatherlink.com 1.10,2013-07-05 06:56:00,
2013-07-05 03:11:00,72.9,71.0,30.24,SE,143,0.0,1.0,94,0.00,,,0.00,0,weatherlink.com 1.10,2013-07-05 07:11:00,
2013-07-05 03:26:00,72.5,71.0,30.24,SE,143,0.0,0.0,94,0.00,,,0.00,0,weatherlink.com 1.10,2013-07-05 07:26:00,
2013-07-05 03:41:00,72.2,71.0,30.23,SE,143,0.0,0.0,95,0.00,,,0.00,0,weatherlink.com 1.10,2013-07-05 07:41:00,
2013-07-05 03:56:00,72.0,71.0,30.24,SE,143,0.0,0.0,95,0.00,,,0.00,0,weatherlink.com 1.10,2013-07-05 07:56:00,
2013-07-05 04:11:00,71.8,71.0,30.24,SE,143,0.0,0.0,96,0.00,,,0.00,0,weatherlink.com 1.10,2013-07-05 08:11:00,
2013-07-05 04:26:00,71.8,71.0,30.24,SE,144,0.0,0.0,96,0.00,,,0.00,0,weatherlink.com 1.10,2013-07-05 08:26:00,
2013-07-05 04:41:00,72.3,71.0,30.24,South,176,0.0,2.0,96,0.00,,,0.00,0,weatherlink.com 1.10,2013-07-05 08:41:00,
2013-07-05 04:56:00,72.6,71.0,30.24,SE,138,0.0,3.0,96,0.00,,,0.00,0,weatherlink.com 1.10,2013-07-05 08:56:00,
2013-07-05 05:11:00,72.8,72.0,30.25,ESE,105,1.0,4.0,96,0.00,,,0.00,0,weatherlink.com 1.10,2013-07-05 09:11:00,
2013-07-05 05:26:00,72.9,72.0,30.25,SSE,163,0.0,3.0,96,0.00,,,0.00,0,weatherlink.com 1.10,2013-07-05 09:26:00,
2013-07-05 05:41:00,73.0,72.0,30.25,SE,131,0.0,2.0,96,0.00,,,0.00,0,weatherlink.com 1.10,2013-07-05 09:41:00,
2013-07-05 05:56:00,73.0,72.0,30.25,SSE,167,0.0,2.0,96,0.00,,,0.00,0,weatherlink.com 1.10,2013-07-05 09:56:00,
2013-07-05 06:11:00,73.0,72.0,30.25,SSE,167,0.0,0.0,96,0.00,,,0.00,0,weatherlink.com 1.10,2013-07-05 10:11:00,
2013-07-05 06:26:00,73.2,72.0,30.25,SSW,200,0.0,0.0,96,0.00,,,0.00,28,weatherlink.com 1.10,2013-07-05 10:26:00,
2013-07-05 06:56:00,73.4,72.0,30.25,South,175,0.0,3.0,95,0.00,,,0.00,23,weatherlink.com 1.10,2013-07-05 10:56:00,
2013-07-05 07:26:00,73.7,72.0,30.26,SSE,161,0.0,5.0,95,0.00,,,0.00,47,weatherlink.com 1.10,2013-07-05 11:26:00,
2013-07-05 07:41:00,74.0,73.0,30.26,SSE,163,0.0,5.0,95,0.00,,,0.00,86,weatherlink.com 1.10,2013-07-05 11:41:00,
2013-07-05 07:56:00,74.4,73.0,30.27,West,270,3.0,4.0,95,0.00,,,0.00,148,weatherlink.com 1.10,2013-07-05 11:56:00,
2013-07-05 08:11:00,74.9,73.0,30.27,WSW,244,2.0,5.0,94,0.00,,,0.00,130,weatherlink.com 1.10,2013-07-05 12:11:00,
2013-07-05 08:26:00,75.2,73.0,30.28,South,174,0.0,5.0,93,0.00,,,0.00,135,weatherlink.com 1.10,2013-07-05 12:26:00,
2013-07-05 08:41:00,75.6,73.0,30.28,SSE,163,0.0,6.0,92,0.00,,,0.00,149,weatherlink.com 1.10,2013-07-05 12:41:00,
2013-07-05 09:12:00,77.3,74.0,30.28,WSW,244,0.0,7.0,89,0.00,,,0.00,165,weatherlink.com 1.10,2013-07-05 13:12:00,
2013-07-05 09:27:00,77.1,74.0,30.28,WSW,247,3.0,5.0,89,0.00,,,0.00,364,weatherlink.com 1.10,2013-07-05 13:27:00,
2013-07-05 09:42:00,77.7,74.0,30.28,SSW,203,0.0,4.0,89,0.00,,,0.00,643,weatherlink.com 1.10,2013-07-05 13:42:00,
2013-07-05 09:57:00,78.6,74.0,30.28,South,175,6.0,7.0,86,0.00,,,0.00,705,weatherlink.com 1.10,2013-07-05 13:57:00,
2013-07-05 10:12:00,80.3,74.0,30.28,South,179,2.0,9.0,82,0.00,,,0.00,853,weatherlink.com 1.10,2013-07-05 14:12:00,
2013-07-05 10:42:00,81.7,75.0,30.28,WSW,249,1.0,7.0,79,0.00,,,0.00,446,weatherlink.com 1.10,2013-07-05 14:42:00,
2013-07-05 10:57:00,82.5,74.0,30.28,SSE,161,4.0,8.0,76,0.00,,,0.00,803,weatherlink.com 1.10,2013-07-05 14:57:00,
2013-07-05 11:27:00,83.6,75.0,30.27,West,265,3.0,9.0,75,0.00,,,0.00,937,weatherlink.com 1.10,2013-07-05 15:27:00,
2013-07-05 11:42:00,84.3,74.0,30.27,South,172,6.0,10.0,71,0.00,,,0.00,875,weatherlink.com 1.10,2013-07-05 15:42:00,
2013-07-05 11:57:00,84.1,74.0,30.26,West,259,1.0,6.0,72,0.00,,,0.00,158,weatherlink.com 1.10,2013-07-05 15:57:00,
2013-07-05 12:12:00,84.8,74.0,30.26,NW,314,0.0,8.0,71,0.00,,,0.00,932,weatherlink.com 1.10,2013-07-05 16:12:00,
2013-07-05 12:27:00,85.4,75.0,30.26,SW,225,0.0,8.0,70,0.00,,,0.00,1011,weatherlink.com 1.10,2013-07-05 16:27:00,
2013-07-05 12:42:00,86.4,74.0,30.26,ESE,119,3.0,6.0,67,0.00,,,0.00,1021,weatherlink.com 1.10,2013-07-05 16:42:00,
2013-07-05 12:57:00,85.9,73.0,30.26,ESE,120,1.0,7.0,66,0.00,,,0.00,1049,weatherlink.com 1.10,2013-07-05 16:57:00,
2013-07-05 13:12:00,86.2,75.0,30.25,WSW,248,4.0,5.0,70,0.00,,,0.00,1102,weatherlink.com 1.10,2013-07-05 17:12:00,
2013-07-05 13:27:00,86.6,72.0,30.25,South,173,2.0,6.0,63,0.00,,,0.00,1025,weatherlink.com 1.10,2013-07-05 17:27:00,
2013-07-05 13:42:00,87.2,73.0,30.24,SE,132,0.0,7.0,63,0.00,,,0.00,1155,weatherlink.com 1.10,2013-07-05 17:42:00,
2013-07-05 13:57:00,87.4,73.0,30.24,ENE,59,4.0,8.0,63,0.00,,,0.00,1076,weatherlink.com 1.10,2013-07-05 17:57:00,
2013-07-05 14:12:00,87.5,74.0,30.24,NE,43,2.0,6.0,64,0.00,,,0.00,218,weatherlink.com 1.10,2013-07-05 18:12:00,
2013-07-05 14:27:00,87.5,73.0,30.23,ESE,112,0.0,7.0,62,0.00,,,0.00,766,weatherlink.com 1.10,2013-07-05 18:27:00,
2013-07-05 14:43:00,87.7,73.0,30.22,SSE,164,6.0,8.0,62,0.00,,,0.00,937,weatherlink.com 1.10,2013-07-05 18:43:00,
2013-07-05 14:58:00,88.0,73.0,30.22,West,264,2.0,9.0,62,0.00,,,0.00,784,weatherlink.com 1.10,2013-07-05 18:58:00,
2013-07-05 15:13:00,88.5,73.0,30.22,SW,228,6.0,8.0,61,0.00,,,0.00,670,weatherlink.com 1.10,2013-07-05 19:13:00,
2013-07-05 15:28:00,88.8,74.0,30.21,SSE,162,5.0,5.0,62,0.00,,,0.00,795,weatherlink.com 1.10,2013-07-05 19:28:00,
2013-07-05 15:43:00,88.6,73.0,30.20,South,176,1.0,5.0,61,0.00,,,0.00,745,weatherlink.com 1.10,2013-07-05 19:43:00,
2013-07-05 15:58:00,88.9,74.0,30.20,SSE,164,2.0,9.0,61,0.00,,,0.00,649,weatherlink.com 1.10,2013-07-05 19:58:00,
2013-07-05 16:13:00,88.4,74.0,30.19,ENE,70,1.0,7.0,62,0.00,,,0.00,608,weatherlink.com 1.10,2013-07-05 20:13:00,
2013-07-05 16:28:00,87.4,74.0,30.19,SE,127,2.0,6.0,65,0.00,,,0.00,789,weatherlink.com 1.10,2013-07-05 20:28:00,
2013-07-05 16:43:00,88.3,74.0,30.19,WSW,249,0.0,10.0,62,0.00,,,0.00,555,weatherlink.com 1.10,2013-07-05 20:43:00,
2013-07-05 16:58:00,89.0,73.0,30.18,East,91,4.0,8.0,60,0.00,,,0.00,696,weatherlink.com 1.10,2013-07-05 20:58:00,
2013-07-05 17:13:00,88.4,75.0,30.18,SE,137,4.0,12.0,64,0.00,,,0.00,410,weatherlink.com 1.10,2013-07-05 21:13:00,
2013-07-05 17:28:00,88.0,76.0,30.17,SE,138,2.0,6.0,67,0.00,,,0.00,388,weatherlink.com 1.10,2013-07-05 21:28:00,
2013-07-05 17:43:00,87.6,75.0,30.17,SSE,167,0.0,6.0,66,0.00,,,0.00,387,weatherlink.com 1.10,2013-07-05 21:43:00,
2013-07-05 17:58:00,86.5,74.0,30.17,SSE,157,2.0,7.0,67,0.00,,,0.00,309,weatherlink.com 1.10,2013-07-05 21:58:00,
2013-07-05 18:13:00,86.5,76.0,30.17,SSE,157,2.0,8.0,70,0.00,,,0.00,422,weatherlink.com 1.10,2013-07-05 22:13:00,
2013-07-05 18:28:00,86.6,75.0,30.17,SW,223,2.0,8.0,68,0.00,,,0.00,42,weatherlink.com 1.10,2013-07-05 22:28:00,
2013-07-05 18:43:00,86.1,74.0,30.18,SSE,148,5.0,9.0,68,0.00,,,0.00,302,weatherlink.com 1.10,2013-07-05 22:43:00,
2013-07-05 18:58:00,85.5,75.0,30.18,SE,146,5.0,7.0,70,0.00,,,0.00,53,weatherlink.com 1.10,2013-07-05 22:58:00,
2013-07-05 19:13:00,84.6,74.0,30.18,South,183,2.0,7.0,71,0.00,,,0.00,33,weatherlink.com 1.10,2013-07-05 23:13:00,
2013-07-05 19:28:00,83.5,74.0,30.19,WSW,242,3.0,7.0,74,0.00,,,0.00,26,weatherlink.com 1.10,2013-07-05 23:28:00,
2013-07-05 19:43:00,82.9,75.0,30.19,South,186,1.0,5.0,76,0.00,,,0.00,16,weatherlink.com 1.10,2013-07-05 23:43:00,
2013-07-05 19:58:00,82.3,75.0,30.20,SSW,200,0.0,4.0,78,0.00,,,0.00,12,weatherlink.com 1.10,2013-07-05 23:58:00,
2013-07-05 20:13:00,81.7,74.0,30.20,SSE,165,0.0,8.0,78,0.00,,,0.00,7,weatherlink.com 1.10,2013-07-06 00:13:00,
2013-07-05 20:28:00,81.0,74.0,30.20,South,177,0.0,3.0,80,0.00,,,0.00,0,weatherlink.com 1.10,2013-07-06 00:28:00,
2013-07-05 20:43:00,80.2,74.0,30.20,SSE,150,0.0,0.0,82,0.00,,,0.00,0,weatherlink.com 1.10,2013-07-06 00:43:00,
2013-07-05 20:58:00,79.0,74.0,30.20,SSE,150,0.0,0.0,85,0.00,,,0.00,0,weatherlink.com 1.10,2013-07-06 00:58:00,
2013-07-05 21:13:00,78.1,74.0,30.20,SSE,150,0.0,0.0,86,0.00,,,0.00,0,weatherlink.com 1.10,2013-07-06 01:13:00,
2013-07-05 21:28:00,77.6,74.0,30.21,SSE,150,0.0,0.0,87,0.00,,,0.00,0,weatherlink.com 1.10,2013-07-06 01:28:00,
2013-07-05 21:43:00,77.4,74.0,30.22,SSE,150,0.0,0.0,88,0.00,,,0.00,0,weatherlink.com 1.10,2013-07-06 01:43:00,
2013-07-05 21:58:00,77.1,74.0,30.23,SSE,150,0.0,0.0,89,0.00,,,0.00,0,weatherlink.com 1.10,2013-07-06 01:58:00,
2013-07-05 22:13:00,77.2,74.0,30.23,SSE,149,0.0,0.0,89,0.00,,,0.00,0,weatherlink.com 1.10,2013-07-06 02:13:00,
2013-07-05 22:28:00,77.5,73.0,30.23,South,169,0.0,0.0,87,0.00,,,0.00,0,weatherlink.com 1.10,2013-07-06 02:28:00,
2013-07-05 22:43:00,77.5,73.0,30.24,SSE,168,0.0,0.0,87,0.00,,,0.00,0,weatherlink.com 1.10,2013-07-06 02:43:00,
2013-07-05 22:58:00,77.3,74.0,30.25,SSE,163,0.0,0.0,88,0.00,,,0.00,0,weatherlink.com 1.10,2013-07-06 02:58:00,
2013-07-05 23:13:00,77.1,73.0,30.25,SSE,156,0.0,0.0,88,0.00,,,0.00,0,weatherlink.com 1.10,2013-07-06 03:13:00,
2013-07-05 23:28:00,76.9,73.0,30.25,SW,217,1.0,7.0,88,0.00,,,0.00,0,weatherlink.com 1.10,2013-07-06 03:28:00,
2013-07-05 23:43:00,76.6,73.0,30.25,South,169,0.0,3.0,89,0.00,,,0.00,0,weatherlink.com 1.10,2013-07-06 03:43:00,
2013-07-05 23:58:00,76.3,73.0,30.25,SSE,166,0.0,3.0,90,0.00,,,0.00,0,weatherlink.com 1.10,2013-07-06 03:58:00,